Time;durP1;ratioP1;P1;durP2;ratioP2;P2;SDS_P1;SDS_P2;PMS_P1;PMS_P2;Temp;Humidity;BMP_temperature;BMP_pressure;BME280_temperature;BME280_humidity;BME280_pressure;Samples;Min_cycle;Max_cycle;Signal;HPM_P1;HPM_P2
2024/01/28 00:01:47;;;;;;;30.65;16.30;;;1.60;99.90;;;;;;4971287;28;20042;-64
2024/01/28 00:04:13;;;;;;;30.23;16.02;;;1.80;99.90;;;;;;4969358;28;20045;-64
2024/01/28 00:06:39;;;;;;;31.45;16.15;;;;;;;;;;4971256;28;20042;-64
2024/01/28 00:09:06;;;;;;;27.77;16.70;;;1.70;99.90;;;;;;4971088;28;20047;-64
2024/01/28 00:11:32;;;;;;;31.73;16.30;;;;;;;;;;4970789;28;20051;-64
2024/01/28 00:13:58;;;;;;;36.45;18.63;;;;;;;;;;4970198;28;20042;-64
2024/01/28 00:16:24;;;;;;;35.08;15.05;;;;;;;;;;4970618;28;20043;-64
2024/01/28 00:18:54;;;;;;;24.67;15.73;;;;;;;;;;4971332;28;20565;-64
2024/01/28 00:21:20;;;;;;;30.00;15.05;;;;;;;;;;4967691;28;20050;-65
2024/01/28 00:23:46;;;;;;;28.25;16.40;;;;;;;;;;4970395;28;20045;-64
2024/01/28 00:26:12;;;;;;;31.48;15.98;;;;;;;;;;4970099;28;20039;-64
2024/01/28 00:28:37;;;;;;;27.25;15.82;;;1.90;99.90;;;;;;4970158;28;20050;-64
2024/01/28 00:31:08;;;;;;;25.52;14.63;;;;;;;;;;4970176;28;20081;-63
2024/01/28 00:33:33;;;;;;;34.42;14.63;;;2.10;99.90;;;;;;4969548;28;20038;-64
2024/01/28 00:35:59;;;;;;;30.60;14.82;;;;;;;;;;4966387;28;20418;-64
2024/01/28 00:38:31;;;;;;;23.67;13.60;;;;;;;;;;4969928;28;20070;-64
2024/01/28 00:40:57;;;;;;;27.23;13.25;;;;;;;;;;4968615;28;20042;-64
2024/01/28 00:43:23;;;;;;;29.20;14.82;;;;;;;;;;4968592;28;20130;-64
2024/01/28 00:45:49;;;;;;;25.88;14.63;;;;;;;;;;4968638;28;20118;-64
2024/01/28 00:48:15;;;;;;;29.15;13.30;;;;;;;;;;4968477;28;20423;-64
2024/01/28 00:50:40;;;;;;;28.08;12.43;;;1.90;99.90;;;;;;4966859;28;20043;-64
2024/01/28 00:53:06;;;;;;;24.33;13.13;;;;;;;;;;4966009;28;20071;-64
2024/01/28 00:55:32;;;;;;;25.35;12.70;;;;;;;;;;4968273;28;20507;-64
2024/01/28 00:57:58;;;;;;;26.02;12.13;;;;;;;;;;4969663;28;20050;-64
2024/01/28 01:00:25;;;;;;;25.83;12.10;;;;;;;;;;4968430;28;20061;-64
2024/01/28 01:02:56;;;;;;;37.45;13.70;;;;;;;;;;4969407;28;20093;-64
2024/01/28 01:05:22;;;;;;;25.98;12.38;;;;;;;;;;4973015;28;20046;-64
2024/01/28 01:07:48;;;;;;;27.20;12.82;;;;;;;;;;4970760;28;20038;-64
2024/01/28 01:10:14;;;;;;;22.40;11.85;;;;;;;;;;4969586;28;20529;-64
2024/01/28 01:12:40;;;;;;;32.33;12.25;;;;;;;;;;4969814;28;20076;-64
2024/01/28 01:15:07;;;;;;;24.35;12.85;;;2.10;99.90;;;;;;4968140;28;20126;-65
2024/01/28 01:17:33;;;;;;;25.58;12.98;;;;;;;;;;4966939;28;20043;-64
2024/01/28 01:20:00;;;;;;;33.13;13.60;;;;;;;;;;4969933;28;20038;-64
2024/01/28 01:22:26;;;;;;;21.08;12.23;;;;;;;;;;4969934;28;20042;-64
2024/01/28 01:24:52;;;;;;;23.98;11.50;;;;;;;;;;4968668;28;20035;-64
2024/01/28 01:27:18;;;;;;;21.50;11.15;;;;;;;;;;4969455;28;20045;-64
2024/01/28 01:29:44;;;;;;;25.30;11.73;;;;;;;;;;4969547;28;20111;-64
2024/01/28 01:32:10;;;;;;;21.05;11.25;;;;;;;;;;4966683;28;20045;-64
2024/01/28 01:34:37;;;;;;;19.55;10.38;;;;;;;;;;4971627;28;20090;-64
2024/01/28 01:37:03;;;;;;;20.23;10.43;;;;;;;;;;4971200;28;20070;-64
2024/01/28 01:39:30;;;;;;;22.63;11.18;;;;;;;;;;4970174;28;20042;-64
2024/01/28 01:41:56;;;;;;;20.77;10.02;;;2.20;99.90;;;;;;4969808;28;20077;-64
2024/01/28 01:44:22;;;;;;;18.52;10.52;;;;;;;;;;4970685;28;20079;-64
2024/01/28 01:46:48;;;;;;;16.48;9.25;;;;;;;;;;4968094;28;20529;-64
2024/01/28 01:49:14;;;;;;;23.52;9.98;;;;;;;;;;4968874;28;20129;-64
2024/01/28 01:51:40;;;;;;;20.08;10.68;;;2.30;99.90;;;;;;4968336;28;20043;-64
2024/01/28 01:54:07;;;;;;;20.35;9.20;;;;;;;;;;4970376;28;20641;-64
2024/01/28 01:56:36;;;;;;;20.02;9.07;;;;;;;;;;4965778;28;20388;-64
2024/01/28 01:59:05;;;;;;;16.85;8.93;;;2.30;99.90;;;;;;4967193;28;20035;-64
2024/01/28 02:01:32;;;;;;;16.65;8.60;;;;;;;;;;4968468;28;20170;-64
2024/01/28 02:03:58;;;;;;;20.40;9.25;;;;;;;;;;4968250;28;20039;-64
2024/01/28 02:06:25;;;;;;;19.67;9.07;;;2.50;99.90;;;;;;4970038;28;20068;-64
2024/01/28 02:08:50;;;;;;;18.88;8.73;;;2.40;99.90;;;;;;4969226;28;20046;-64
2024/01/28 02:11:16;;;;;;;18.15;9.40;;;;;;;;;;4969731;28;20042;-64
2024/01/28 02:13:42;;;;;;;18.35;8.35;;;2.50;99.90;;;;;;4967285;28;20094;-64
2024/01/28 02:16:08;;;;;;;20.38;8.90;;;;;;;;;;4969929;28;20045;-64
2024/01/28 02:18:34;;;;;;;22.92;8.25;;;;;;;;;;4967728;28;20119;-64
2024/01/28 02:21:00;;;;;;;15.90;8.32;;;2.40;99.90;;;;;;4969829;28;20043;-64
2024/01/28 02:23:25;;;;;;;21.02;8.07;;;2.50;99.90;;;;;;4968960;28;20039;-64
2024/01/28 02:25:51;;;;;;;17.60;8.43;;;2.50;99.90;;;;;;4968265;28;20514;-64
2024/01/28 02:28:17;;;;;;;19.67;9.18;;;;;;;;;;4967648;28;20122;-64
2024/01/28 02:30:43;;;;;;;19.85;8.48;;;;;;;;;;4966890;28;20050;-64
2024/01/28 02:33:09;;;;;;;19.98;7.72;;;;;;;;;;4969562;28;20031;-64
2024/01/28 02:35:36;;;;;;;17.20;7.85;;;;;;;;;;4967403;28;20517;-64
2024/01/28 02:38:02;;;;;;;20.17;7.20;;;2.50;99.90;;;;;;4971453;28;20560;-64
2024/01/28 02:40:28;;;;;;;16.15;7.57;;;;;;;;;;4972086;28;20042;-64
2024/01/28 02:42:54;;;;;;;15.73;7.13;;;;;;;;;;4970266;28;20038;-63
2024/01/28 02:45:20;;;;;;;19.13;8.43;;;;;;;;;;4973219;28;20043;-64
2024/01/28 02:47:45;;;;;;;15.90;8.13;;;2.60;99.90;;;;;;4972023;28;20039;-64
2024/01/28 02:50:14;;;;;;;15.73;6.97;;;;;;;;;;4971054;28;20043;-63
2024/01/28 02:52:40;;;;;;;16.27;8.05;;;;;;;;;;4970986;28;20185;-64
2024/01/28 02:55:07;;;;;;;14.63;7.57;;;;;;;;;;4971170;28;20031;-63
2024/01/28 02:57:33;;;;;;;18.60;8.25;;;;;;;;;;4966420;28;20084;-63
2024/01/28 02:59:59;;;;;;;24.83;9.07;;;;;;;;;;4968663;28;20042;-63
2024/01/28 03:02:24;;;;;;;17.48;8.30;;;2.40;99.90;;;;;;4968049;28;20035;-63
2024/01/28 03:04:50;;;;;;;17.02;8.35;;;2.40;99.90;;;;;;4960351;28;20047;-64
2024/01/28 03:07:16;;;;;;;19.33;8.93;;;;;;;;;;4970976;28;20061;-64
2024/01/28 03:09:42;;;;;;;18.73;8.00;;;;;;;;;;4969201;28;20287;-64
2024/01/28 03:12:08;;;;;;;15.55;8.60;;;;;;;;;;4950916;28;20181;-64
2024/01/28 03:14:35;;;;;;;18.38;9.73;;;;;;;;;;4972228;28;20065;-64
2024/01/28 03:17:01;;;;;;;18.70;9.45;;;;;;;;;;4970828;28;20507;-64
2024/01/28 03:19:27;;;;;;;17.08;9.63;;;;;;;;;;4970921;28;20039;-64
2024/01/28 03:21:53;;;;;;;17.77;9.23;;;1.90;99.90;;;;;;4969922;28;20047;-63
2024/01/28 03:24:19;;;;;;;18.67;10.65;;;;;;;;;;4972804;28;20043;-64
2024/01/28 03:26:45;;;;;;;20.33;10.13;;;;;;;;;;4970833;28;20102;-64
2024/01/28 03:29:11;;;;;;;19.27;10.32;;;;;;;;;;4972053;28;20054;-63
2024/01/28 03:31:38;;;;;;;17.50;9.57;;;;;;;;;;4971488;28;20521;-63
2024/01/28 03:34:04;;;;;;;25.08;10.32;;;;;;;;;;4955077;28;20427;-65
2024/01/28 03:36:30;;;;;;;22.67;11.02;;;;;;;;;;4972004;28;20037;-65
2024/01/28 03:38:56;;;;;;;18.10;10.75;;;;;;;;;;4971094;28;20640;-64
2024/01/28 03:41:22;;;;;;;17.73;10.90;;;;;;;;;;4972542;28;20170;-65
2024/01/28 03:43:49;;;;;;;18.73;11.27;;;;;;;;;;4971325;28;20414;-65
2024/01/28 03:46:15;;;;;;;19.95;11.52;;;;;;;;;;4972063;28;20538;-65
2024/01/28 03:48:41;;;;;;;21.38;11.95;;;;;;;;;;4969501;28;20063;-65
2024/01/28 03:51:07;;;;;;;20.23;11.73;;;;;;;;;;4953757;28;20075;-65
2024/01/28 03:53:33;;;;;;;20.52;11.82;;;;;;;;;;4972170;28;20334;-65
2024/01/28 03:56:00;;;;;;;20.80;11.40;;;;;;;;;;4970697;28;20093;-65
2024/01/28 03:58:26;;;;;;;19.92;11.20;;;;;;;;;;4971533;28;20066;-65
2024/01/28 04:00:52;;;;;;;22.90;12.10;;;;;;;;;;4971260;28;20059;-65
2024/01/28 04:03:18;;;;;;;21.80;11.40;;;;;;;;;;4970057;28;20053;-65
2024/01/28 04:05:44;;;;;;;33.13;13.02;;;;;;;;;;4971417;28;20216;-65
2024/01/28 04:08:10;;;;;;;24.30;13.30;;;;;;;;;;4970056;28;20126;-65
2024/01/28 04:10:36;;;;;;;23.05;13.07;;;;;;;;;;4970508;28;20051;-65
2024/01/28 04:13:04;;;;;;;30.67;12.90;;;;;;;;;;4970273;28;20070;-65
2024/01/28 04:15:30;;;;;;;30.67;13.40;;;;;;;;;;4972228;28;20086;-64
2024/01/28 04:17:56;;;;;;;26.35;12.90;;;;;;;;;;4969277;28;20562;-64
2024/01/28 04:20:21;;;;;;;22.30;12.93;;;1.70;99.90;;;;;;4971648;28;20043;-65
2024/01/28 04:22:48;;;;;;;20.85;12.30;;;;;;;;;;4969876;28;20031;-65
2024/01/28 04:25:14;;;;;;;23.83;12.38;;;;;;;;;;4971468;28;20066;-65
2024/01/28 04:27:40;;;;;;;18.20;11.63;;;;;;;;;;4971273;28;20490;-65
2024/01/28 04:30:08;;;;;;;24.95;13.02;;;1.50;99.90;;;;;;4970566;28;20418;-65
2024/01/28 04:32:34;;;;;;;27.75;13.73;;;;;;;;;;4970703;28;20070;-65
2024/01/28 04:35:00;;;;;;;19.88;12.85;;;;;;;;;;4970327;28;20093;-65
2024/01/28 04:37:27;;;;;;;24.13;12.65;;;;;;;;;;4971067;28;20039;-65
2024/01/28 04:39:54;;;;;;;21.45;13.20;;;;;;;;;;4970706;28;20038;-65
2024/01/28 04:42:22;;;;;;;26.98;13.52;;;;;;;;;;4971200;28;20046;-65
2024/01/28 04:44:51;;;;;;;22.65;12.57;;;;;;;;;;4970208;28;20474;-65
2024/01/28 04:47:17;;;;;;;25.83;13.40;;;;;;;;;;4970189;28;20035;-64
2024/01/28 04:49:43;;;;;;;19.95;12.98;;;;;;;;;;4970604;28;20069;-65
2024/01/28 04:52:09;;;;;;;21.42;12.82;;;;;;;;;;4953372;28;20030;-64
2024/01/28 04:54:36;;;;;;;25.45;13.13;;;;;;;;;;4971143;28;20065;-65
2024/01/28 04:57:02;;;;;;;21.23;12.85;;;;;;;;;;4970623;28;20101;-64
2024/01/28 04:59:28;;;;;;;22.48;13.40;;;;;;;;;;4971020;28;20510;-65
2024/01/28 05:01:55;;;;;;;20.83;13.85;;;;;;;;;;4969836;28;20049;-65
2024/01/28 05:04:21;;;;;;;27.33;14.18;;;;;;;;;;4970876;28;20055;-65
2024/01/28 05:06:47;;;;;;;25.10;13.55;;;;;;;;;;4972117;28;20043;-65
2024/01/28 05:09:13;;;;;;;26.50;13.15;;;1.10;99.90;;;;;;4955224;28;20045;-65
2024/01/28 05:11:39;;;;;;;21.85;13.63;;;1.20;99.90;;;;;;4970488;28;20038;-65
2024/01/28 05:14:05;;;;;;;24.23;13.90;;;;;;;;;;4970343;28;20089;-65
2024/01/28 05:16:31;;;;;;;28.23;14.13;;;;;;;;;;4970671;28;20042;-65
2024/01/28 05:18:57;;;;;;;22.63;14.30;;;;;;;;;;4969810;28;20042;-65
2024/01/28 05:21:23;;;;;;;22.42;14.05;;;;;;;;;;4970569;28;20459;-65
2024/01/28 05:23:50;;;;;;;24.38;14.02;;;;;;;;;;4966714;28;20042;-65
2024/01/28 05:26:17;;;;;;;27.60;13.90;;;;;;;;;;4967800;28;20093;-64
2024/01/28 05:28:44;;;;;;;23.35;12.95;;;;;;;;;;4968806;28;20039;-65
2024/01/28 05:31:12;;;;;;;29.70;14.45;;;;;;;;;;4968187;28;20049;-65
2024/01/28 05:33:38;;;;;;;24.05;12.40;;;;;;;;;;4969314;28;20046;-65
2024/01/28 05:36:11;;;;;;;23.92;13.40;;;;;;;;;;4968750;28;20426;-65
2024/01/28 05:38:37;;;;;;;22.75;12.82;;;;;;;;;;4969726;28;20053;-65
2024/01/28 05:41:03;;;;;;;18.33;12.52;;;;;;;;;;4969720;28;20046;-65
2024/01/28 05:43:29;;;;;;;22.70;13.73;;;;;;;;;;4970905;28;20038;-65
2024/01/28 05:45:55;;;;;;;25.02;14.18;;;;;;;;;;4969585;28;20039;-65
2024/01/28 05:48:21;;;;;;;18.92;14.07;;;;;;;;;;4970030;28;20121;-65
2024/01/28 05:50:47;;;;;;;19.80;13.95;;;;;;;;;;4968907;28;20454;-65
2024/01/28 05:53:13;;;;;;;21.55;13.77;;;;;;;;;;4968304;28;20039;-65
2024/01/28 05:55:39;;;;;;;23.63;14.10;;;1.00;99.90;;;;;;4969904;28;20041;-65
2024/01/28 05:58:04;;;;;;;20.25;13.30;;;1.00;99.90;;;;;;4968269;28;20039;-65
2024/01/28 06:00:30;;;;;;;21.75;13.80;;;;;;;;;;4970300;28;20043;-65
2024/01/28 06:02:56;;;;;;;23.35;14.82;;;;;;;;;;4951089;28;20042;-65
2024/01/28 06:05:22;;;;;;;24.23;13.98;;;;;;;;;;4970137;28;20045;-65
2024/01/28 06:07:48;;;;;;;23.10;13.20;;;0.90;99.90;;;;;;4970283;28;20043;-65
2024/01/28 06:10:14;;;;;;;21.70;14.80;;;;;;;;;;4969654;28;20031;-65
2024/01/28 06:12:40;;;;;;;24.42;14.40;;;;;;;;;;4968179;28;20066;-64
2024/01/28 06:15:08;;;;;;;27.98;15.35;;;1.00;99.90;;;;;;4973118;28;20085;-65
2024/01/28 06:17:36;;;;;;;23.08;15.45;;;;;;;;;;4972978;28;20039;-65
2024/01/28 06:20:04;;;;;;;22.73;14.43;;;1.00;99.90;;;;;;4971720;28;20102;-65
2024/01/28 06:22:30;;;;;;;20.75;13.73;;;;;;;;;;4973341;28;20046;-65
2024/01/28 06:24:56;;;;;;;22.48;14.27;;;;;;;;;;4973026;28;20050;-65
2024/01/28 06:27:22;;;;;;;23.70;15.50;;;;;;;;;;4973915;28;20042;-65
2024/01/28 06:29:48;;;;;;;24.35;14.68;;;;;;;;;;4974059;28;20130;-65
2024/01/28 06:32:14;;;;;;;24.67;15.30;;;;;;;;;;4972691;28;20526;-65
2024/01/28 06:34:39;;;;;;;21.00;14.57;;;0.70;99.90;;;;;;4973645;28;20121;-65
2024/01/28 06:37:05;;;;;;;21.92;14.68;;;0.70;99.90;;;;;;4972247;28;20057;-65
2024/01/28 06:39:31;;;;;;;23.02;14.55;;;;;;;;;;4973542;28;20045;-65
2024/01/28 06:41:57;;;;;;;27.42;15.15;;;;;;;;;;4971506;28;20046;-65
2024/01/28 06:44:23;;;;;;;25.52;15.18;;;;;;;;;;4973881;28;20030;-65
2024/01/28 06:46:49;;;;;;;25.48;15.13;;;;;;;;;;4971745;28;20046;-65
2024/01/28 06:49:15;;;;;;;27.20;15.32;;;;;;;;;;4968753;28;20051;-65
2024/01/28 06:51:45;;;;;;;23.13;15.15;;;;;;;;;;4971669;28;20047;-65
2024/01/28 06:54:10;;;;;;;29.08;15.15;;;0.60;99.90;;;;;;4968695;28;20049;-64
2024/01/28 06:56:37;;;;;;;22.52;15.02;;;;;;;;;;4973750;28;20039;-65
2024/01/28 06:59:03;;;;;;;25.10;15.38;;;;;;;;;;4946817;28;20047;-65
2024/01/28 07:01:29;;;;;;;21.83;15.15;;;;;;;;;;4972894;28;20490;-65
2024/01/28 07:03:55;;;;;;;18.60;14.43;;;;;;;;;;4966296;28;20074;-65
2024/01/28 07:06:21;;;;;;;22.63;13.73;;;0.70;99.90;;;;;;4969932;28;20050;-65
2024/01/28 07:08:47;;;;;;;26.95;15.55;;;;;;;;;;4966466;28;20106;-65
2024/01/28 07:11:13;;;;;;;23.20;15.05;;;;;;;;;;4965133;28;20030;-65
2024/01/28 07:13:40;;;;;;;31.08;16.92;;;;;;;;;;4957274;28;20050;-65
2024/01/28 07:16:07;;;;;;;26.25;15.23;;;;;;;;;;4961628;28;20414;-65
2024/01/28 07:18:33;;;;;;;24.63;15.93;;;;;;;;;;4964112;28;20736;-65
2024/01/28 07:20:59;;;;;;;24.65;15.50;;;;;;;;;;4957118;28;20061;-65
2024/01/28 07:23:25;;;;;;;29.42;15.93;;;;;;;;;;4962733;28;20043;-65
2024/01/28 07:25:51;;;;;;;26.42;15.85;;;0.80;99.90;;;;;;4961158;28;20105;-65
2024/01/28 07:28:17;;;;;;;21.50;15.18;;;;;;;;;;4946272;28;20565;-65
2024/01/28 07:30:43;;;;;;;23.75;15.55;;;;;;;;;;4946357;28;20074;-65
2024/01/28 07:33:10;;;;;;;24.95;16.17;;;;;;;;;;4967105;28;20105;-65
2024/01/28 07:35:36;;;;;;;28.05;16.55;;;;;;;;;;4966876;28;20047;-66
2024/01/28 07:38:03;;;;;;;22.10;15.43;;;;;;;;;;4969473;28;20070;-66
2024/01/28 07:40:29;;;;;;;25.23;14.82;;;;;;;;;;4964815;28;20058;-65
2024/01/28 07:42:56;;;;;;;24.92;15.85;;;;;;;;;;4963300;28;20094;-65
2024/01/28 07:45:22;;;;;;;22.48;14.35;;;;;;;;;;4966409;28;20050;-66
2024/01/28 07:47:48;;;;;;;24.90;14.95;;;;;;;;;;4966386;28;20181;-66
2024/01/28 07:50:14;;;;;;;21.13;14.32;;;;;;;;;;4968573;28;20038;-66
2024/01/28 07:52:41;;;;;;;20.30;13.95;;;;;;;;;;4970851;28;20442;-66
2024/01/28 07:55:07;;;;;;;23.40;14.57;;;;;;;;;;4968001;28;20039;-66
2024/01/28 07:57:33;;;;;;;19.13;13.55;;;;;;;;;;4970985;28;20070;-66
2024/01/28 07:59:59;;;;;;;24.55;14.63;;;;;;;;;;4966398;28;20043;-66
2024/01/28 08:02:25;;;;;;;21.35;13.00;;;;;;;;;;4960251;28;20050;-65
2024/01/28 08:04:50;;;;;;;19.90;13.48;;;1.00;99.90;;;;;;4969374;28;20418;-65
2024/01/28 08:07:17;;;;;;;23.77;13.63;;;;;;;;;;4950316;28;20067;-66
2024/01/28 08:09:42;;;;;;;20.58;14.32;;;0.90;99.90;;;;;;4968952;28;20510;-65
2024/01/28 08:12:09;;;;;;;22.10;14.43;;;;;;;;;;4965667;28;20077;-65
2024/01/28 08:14:34;;;;;;;21.80;13.32;;;1.00;99.90;;;;;;4964210;28;20046;-67
2024/01/28 08:17:00;;;;;;;24.75;13.38;;;;;;;;;;4965840;28;20486;-67
2024/01/28 08:19:26;;;;;;;23.85;13.93;;;;;;;;;;4968293;28;20236;-66
2024/01/28 08:21:52;;;;;;;17.67;12.57;;;;;;;;;;4965283;28;20238;-66
2024/01/28 08:24:18;;;;;;;19.55;12.90;;;;;;;;;;4964428;28;20035;-66
2024/01/28 08:26:44;;;;;;;20.80;13.52;;;;;;;;;;4967911;28;20043;-66
2024/01/28 08:29:11;;;;;;;24.50;12.73;;;;;;;;;;4963965;28;20043;-64
2024/01/28 08:31:37;;;;;;;21.85;12.82;;;;;;;;;;4964860;28;20035;-65
2024/01/28 08:34:03;;;;;;;23.15;12.18;;;;;;;;;;4964267;28;20047;-65
2024/01/28 08:36:29;;;;;;;18.73;11.30;;;;;;;;;;4962872;28;20395;-65
2024/01/28 08:38:55;;;;;;;22.77;12.57;;;;;;;;;;4964935;28;20047;-64
2024/01/28 08:41:21;;;;;;;21.13;12.02;;;;;;;;;;4960763;28;20125;-65
2024/01/28 08:43:47;;;;;;;22.33;11.05;;;;;;;;;;4965851;28;20049;-65
2024/01/28 08:46:13;;;;;;;16.55;10.48;;;;;;;;;;4970156;28;20141;-65
2024/01/28 08:48:39;;;;;;;22.02;11.32;;;;;;;;;;4969043;28;20074;-65
2024/01/28 08:51:05;;;;;;;15.55;10.27;;;2.10;99.90;;;;;;4969854;28;20170;-64
2024/01/28 08:53:31;;;;;;;17.35;10.57;;;;;;;;;;4950524;28;20094;-65
2024/01/28 08:55:57;;;;;;;15.77;10.68;;;;;;;;;;4964530;28;20467;-65
2024/01/28 08:58:23;;;;;;;19.05;9.95;;;;;;;;;;4968179;28;20051;-65
2024/01/28 09:00:49;;;;;;;19.73;10.05;;;;;;;;;;4968144;28;20047;-66
2024/01/28 09:03:15;;;;;;;15.27;9.63;;;;;;;;;;4965043;28;20404;-67
2024/01/28 09:05:42;;;;;;;15.43;9.43;;;;;;;;;;4970980;28;20049;-66
2024/01/28 09:08:08;;;;;;;18.83;10.55;;;;;;;;;;4970056;28;20455;-66
2024/01/28 09:10:33;;;;;;;15.32;9.80;;;2.60;19.70;;;;;;4970287;28;20077;-66
2024/01/28 09:12:59;;;;;;;18.58;9.02;;;;;;;;;;4970116;28;20424;-66
2024/01/28 09:15:25;;;;;;;21.05;10.18;;;2.50;1.00;;;;;;4970394;28;20045;-66
2024/01/28 09:17:51;;;;;;;18.38;10.18;;;;;;;;;;4966069;28;20039;-66
2024/01/28 09:20:17;;;;;;;20.38;10.45;;;;;;;;;;4964606;28;20076;-67
2024/01/28 09:22:43;;;;;;;16.65;8.90;;;;;;;;;;4966883;28;20467;-66
2024/01/28 09:25:09;;;;;;;13.20;8.23;;;;;;;;;;4969183;28;20043;-67
2024/01/28 09:27:35;;;;;;;16.77;8.90;;;;;;;;;;4967551;28;20135;-66
2024/01/28 09:30:01;;;;;;;17.50;9.40;;;;;;;;;;4968746;28;20495;-66
2024/01/28 09:32:27;;;;;;;20.42;8.93;;;;;;;;;;4969253;28;20082;-67
2024/01/28 09:34:53;;;;;;;17.20;10.05;;;;;;;;;;4966729;28;20035;-66
2024/01/28 09:37:19;;;;;;;16.98;9.00;;;;;;;;;;4964935;28;20490;-66
2024/01/28 09:39:46;;;;;;;14.75;8.57;;;;;;;;;;4968127;28;20618;-67
2024/01/28 09:42:18;;;;;;;14.68;8.25;;;;;;;;;;4964621;28;20082;-64
2024/01/28 09:44:45;;;;;;;16.60;8.32;;;;;;;;;;4966809;28;20054;-65
2024/01/28 09:47:32;;;;;;;16.88;9.27;;;;;;;;;;4962204;28;20455;-66
2024/01/28 09:50:03;;;;;;;15.65;9.45;;;;;;;;;;4964851;28;20079;-65
2024/01/28 09:52:30;;;;;;;15.13;8.70;;;;;;;;;;4964273;28;20534;-65
2024/01/28 09:54:56;;;;;;;15.25;8.68;;;;;;;;;;4965540;28;20050;-65
2024/01/28 09:57:23;;;;;;;17.20;8.95;;;;;;;;;;4962696;28;20047;-65
2024/01/28 09:59:50;;;;;;;13.88;8.20;;;;;;;;;;4964130;28;20047;-65
2024/01/28 10:02:17;;;;;;;17.25;8.23;;;;;;;;;;4962721;28;20038;-66
2024/01/28 10:04:45;;;;;;;13.55;9.48;;;;;;;;;;4969284;28;20047;-65
2024/01/28 10:07:12;;;;;;;16.63;8.27;;;;;;;;;;4965300;28;20487;-66
2024/01/28 10:09:38;;;;;;;14.18;7.60;;;;;;;;;;4966228;28;20049;-66
2024/01/28 10:12:04;;;;;;;15.90;8.45;;;;;;;;;;4965143;28;20118;-66
2024/01/28 10:14:30;;;;;;;14.13;7.82;;;;;;;;;;4963363;28;20031;-66
2024/01/28 10:17:00;;;;;;;12.88;7.70;;;;;;;;;;4964128;28;20440;-66
2024/01/28 10:19:26;;;;;;;14.85;7.72;;;;;;;;;;4968972;28;20038;-66
2024/01/28 10:21:52;;;;;;;13.73;6.70;;;3.80;99.90;;;;;;4969194;28;20522;-66
2024/01/28 10:24:18;;;;;;;12.23;6.40;;;;;;;;;;4964829;28;20077;-66
2024/01/28 10:26:45;;;;;;;11.68;6.00;;;;;;;;;;4967936;28;20050;-66
2024/01/28 10:29:12;;;;;;;11.85;6.15;;;;;;;;;;4970324;28;20156;-66
2024/01/28 10:31:38;;;;;;;13.07;6.68;;;;;;;;;;4949683;28;20097;-67
2024/01/28 10:34:04;;;;;;;13.30;7.85;;;;;;;;;;4966547;28;20035;-67
2024/01/28 10:36:36;;;;;;;16.73;6.55;;;4.00;99.90;;;;;;4965785;28;20474;-67
2024/01/28 10:39:08;;;;;;;13.60;6.32;;;;;;;;;;4966890;28;20038;-68
2024/01/28 10:41:38;;;;;;;14.75;7.03;;;4.50;99.90;;;;;;4966373;28;20442;-65
2024/01/28 10:44:07;;;;;;;16.00;9.38;;;;;;;;;;4962210;28;20141;-66
2024/01/28 10:46:38;;;;;;;14.43;6.13;;;;;;;;;;4955011;28;20074;-66
2024/01/28 10:49:07;;;;;;;13.07;7.07;;;;;;;;;;4958322;28;20043;-66
2024/01/28 10:51:35;;;;;;;11.63;6.68;;;;;;;;;;4966066;28;20039;-66
2024/01/28 10:54:05;;;;;;;14.10;8.45;;;;;;;;;;4965357;28;20058;-65
2024/01/28 10:56:38;;;;;;;20.45;16.02;;;5.10;99.90;;;;;;4966655;28;20050;-66
2024/01/28 10:59:04;;;;;;;15.98;10.18;;;;;;;;;;4969364;28;20043;-65
2024/01/28 11:01:31;;;;;;;14.27;8.70;;;;;;;;;;4949336;28;20082;-65
2024/01/28 11:03:58;;;;;;;11.35;6.28;;;4.80;99.90;;;;;;4971031;28;20034;-65
2024/01/28 11:06:27;;;;;;;16.73;8.15;;;;;;;;;;4970363;28;20490;-66
2024/01/28 11:08:55;;;;;;;12.18;6.28;;;4.50;99.90;;;;;;4969858;28;20050;-65
2024/01/28 11:11:22;;;;;;;13.05;7.75;;;;;;;;;;4966623;28;20039;-66
2024/01/28 11:13:48;;;;;;;11.75;6.13;;;;;;;;;;4969408;28;20127;-65
2024/01/28 11:16:15;;;;;;;10.63;5.82;;;;;;;;;;4971119;28;20113;-65
2024/01/28 11:19:04;;;;;;;15.40;6.57;;;;;;;;;;4967950;28;20069;-66
2024/01/28 11:21:31;;;;;;;11.68;5.53;;;;;;;;;;4963860;28;20045;-66
2024/01/28 11:23:58;;;;;;;13.07;6.50;;;;;;;;;;4971455;28;20043;-66
2024/01/28 11:26:27;;;;;;;13.00;6.30;;;;;;;;;;4969060;28;20042;-66
2024/01/28 11:28:54;;;;;;;12.10;6.32;;;;;;;;;;4966630;28;20805;-66
2024/01/28 11:31:24;;;;;;;10.10;5.38;;;;;;;;;;4968956;28;20031;-66
2024/01/28 11:33:50;;;;;;;12.32;6.07;;;;;;;;;;4969513;28;20047;-66
2024/01/28 11:36:20;;;;;;;11.07;6.13;;;;;;;;;;4971798;28;20121;-66
2024/01/28 11:38:48;;;;;;;10.10;6.38;;;;;;;;;;4969992;28;20046;-66
2024/01/28 11:41:15;;;;;;;10.82;7.43;;;;;;;;;;4971237;28;20079;-66
2024/01/28 11:43:41;;;;;;;13.82;5.90;;;;;;;;;;4969690;28;20590;-66
2024/01/28 11:46:07;;;;;;;10.82;5.75;;;;;;;;;;4972220;28;20078;-66
2024/01/28 11:48:34;;;;;;;13.15;6.93;;;;;;;;;;4953629;28;20046;-66
2024/01/28 11:51:01;;;;;;;10.45;5.80;;;;;;;;;;4967750;28;20039;-66
2024/01/28 11:53:28;;;;;;;10.52;5.20;;;;;;;;;;4968003;28;20266;-66
2024/01/28 11:56:04;;;;;;;12.52;5.63;;;;;;;;;;4969418;28;20047;-66
2024/01/28 11:58:31;;;;;;;13.15;6.78;;;6.10;99.90;;;;;;4966967;28;20131;-66
2024/01/28 12:00:57;;;;;;;13.93;6.25;;;;;;;;;;4970200;28;20070;-66
2024/01/28 12:03:23;;;;;;;11.13;4.97;;;;;;;;;;4968599;28;20038;-66
2024/01/28 12:05:49;;;;;;;10.00;5.00;;;;;;;;;;4967235;28;20257;-66
2024/01/28 12:08:25;;;;;;;11.15;4.85;;;;;;;;;;4961050;28;20278;-66
2024/01/28 12:10:59;;;;;;;8.63;4.50;;;7.40;48.50;;;;;;4961198;28;20049;-66
2024/01/28 12:13:25;;;;;;;8.52;4.35;;;;;;;;;;4964485;28;20058;-66
2024/01/28 12:15:51;;;;;;;10.27;5.05;;;7.90;99.90;;;;;;4966814;28;20113;-67
2024/01/28 12:18:17;;;;;;;13.68;5.38;;;;;;;;;;4966478;28;20499;-66
2024/01/28 12:20:43;;;;;;;15.00;5.20;;;;;;;;;;4967650;28;20047;-66
2024/01/28 12:23:08;;;;;;;10.70;5.70;;;8.80;99.90;;;;;;4950993;28;20054;-66
2024/01/28 12:25:35;;;;;;;9.32;6.05;;;8.80;45.10;;;;;;4968769;28;20043;-66
2024/01/28 12:28:01;;;;;;;9.75;5.28;;;;;;;;;;4965181;28;20127;-66
2024/01/28 12:30:27;;;;;;;9.20;4.28;;;;;;;;;;4970766;28;20046;-66
2024/01/28 12:32:53;;;;;;;11.07;5.35;;;;;;;;;;4968557;28;20043;-66
2024/01/28 12:35:19;;;;;;;9.68;4.60;;;;;;;;;;4965929;28;20035;-66
2024/01/28 12:37:45;;;;;;;8.85;4.35;;;;;;;;;;4969276;28;20121;-66
2024/01/28 12:40:11;;;;;;;8.27;4.22;;;15.20;1.00;;;;;;4967324;28;20519;-66
2024/01/28 12:42:41;;;;;;;11.25;4.00;;;;;;;;;;4967567;28;20174;-66
2024/01/28 12:45:07;;;;;;;11.02;4.38;;;;;;;;;;4969322;28;20038;-66
2024/01/28 12:47:36;;;;;;;9.82;4.22;;;;;;;;;;4968724;28;20049;-66
2024/01/28 12:50:04;;;;;;;9.15;4.35;;;;;;;;;;4970434;28;20058;-66
2024/01/28 12:52:31;;;;;;;11.68;4.00;;;;;;;;;;4968295;28;20121;-66
2024/01/28 12:54:56;;;;;;;10.05;4.25;;;20.50;99.90;;;;;;4966737;28;20494;-66
2024/01/28 12:57:22;;;;;;;8.57;3.70;;;21.20;99.90;;;;;;4959384;28;20043;-66
2024/01/28 12:59:48;;;;;;;9.18;3.90;;;21.00;99.90;;;;;;4960427;28;20065;-66
2024/01/28 13:02:14;;;;;;;9.20;4.22;;;22.00;99.90;;;;;;4965636;28;20090;-65
2024/01/28 13:04:39;;;;;;;7.50;3.63;;;22.40;99.90;;;;;;4964783;28;20070;-66
2024/01/28 13:07:05;;;;;;;7.95;4.40;;;23.30;99.90;;;;;;4967396;28;20691;-66
2024/01/28 13:09:31;;;;;;;11.23;5.72;;;23.70;99.90;;;;;;4970014;28;20046;-66
2024/01/28 13:11:57;;;;;;;10.63;4.03;;;23.80;99.90;;;;;;4965453;28;20034;-66
2024/01/28 13:14:23;;;;;;;8.32;4.40;;;24.80;99.90;;;;;;4983231;28;20043;-66
2024/01/28 13:16:49;;;;;;;9.88;4.60;;;24.40;99.90;;;;;;4950912;28;20035;-67
2024/01/28 13:19:15;;;;;;;8.45;3.80;;;24.70;99.90;;;;;;4968767;28;20638;-66
2024/01/28 13:21:40;;;;;;;6.97;3.60;;;25.00;99.90;;;;;;4955295;28;20125;-66
2024/01/28 13:24:06;;;;;;;6.68;3.55;;;25.40;99.90;;;;;;4950801;28;20127;-66
2024/01/28 13:26:32;;;;;;;7.38;4.18;;;25.40;99.90;;;;;;4966702;28;20038;-66
2024/01/28 13:28:57;;;;;;;9.07;3.85;;;26.10;99.90;;;;;;4967278;28;20047;-66
2024/01/28 13:31:23;;;;;;;8.60;3.55;;;25.20;99.90;;;;;;4947740;28;20039;-66
2024/01/28 13:33:49;;;;;;;6.65;3.20;;;26.00;99.90;;;;;;4963717;28;20053;-66
2024/01/28 13:36:15;;;;;;;6.60;3.08;;;26.50;99.90;;;;;;4964741;28;21114;-66
2024/01/28 13:38:41;;;;;;;8.30;4.07;;;27.00;99.90;;;;;;4964269;28;20430;-66
2024/01/28 13:41:07;;;;;;;9.75;3.70;;;27.10;99.90;;;;;;4967417;28;20099;-66
2024/01/28 13:43:36;;;;;;;7.00;3.47;;;27.30;99.90;;;;;;4964026;28;20452;-66
2024/01/28 13:46:03;;;;;;;8.38;3.38;;;27.30;99.90;;;;;;4966982;28;20050;-68
2024/01/28 13:48:29;;;;;;;7.30;3.20;;;27.50;99.90;;;;;;4968879;28;20129;-66
2024/01/28 13:50:55;;;;;;;6.68;3.17;;;27.60;99.90;;;;;;4965106;28;20035;-66
2024/01/28 13:53:21;;;;;;;7.53;3.70;;;27.60;99.90;;;;;;4971812;28;20044;-67